Time;durP1;ratioP1;P1;durP2;ratioP2;P2;SDS_P1;SDS_P2;PMS_P1;PMS_P2;Temp;Humidity;BMP_temperature;BMP_pressure;BME280_temperature;BME280_humidity;BME280_pressure;Samples;Min_cycle;Max_cycle;Signal;HPM_P1;HPM_P2
2022/03/31 00:02:12;;;;;;;6.45;1.30;;;;;;;;;;5052341;28;20506;-62
2022/03/31 00:04:38;;;;;;;5.38;1.35;;;;;;;;;;5051456;28;20051;-62
2022/03/31 00:07:05;;;;;;;3.90;1.13;;;;;;;;;;5052363;28;20060;-62
2022/03/31 00:09:31;;;;;;;4.25;1.33;;;;;;;;;;5052111;28;20049;-62
2022/03/31 00:11:59;;;;;;;6.45;1.60;;;;;;;;;;5037124;28;20475;-62
2022/03/31 00:14:26;;;;;;;4.32;1.30;;;;;;;;;;5034774;28;20056;-62
2022/03/31 00:16:53;;;;;;;6.22;1.73;;;;;;;;;;5051704;28;20045;-62
2022/03/31 00:19:19;;;;;;;11.98;1.42;;;;;;;;;;5052146;28;20059;-62
2022/03/31 00:24:49;;;;;;;8.88;1.50;;;;;;;;;;5071448;28;20148;-62
2022/03/31 00:27:15;;;;;;;8.82;1.42;;;;;;;;;;5049782;28;20048;-62
2022/03/31 00:29:41;;;;;;;6.57;1.23;;;;;;;;;;5045525;28;20056;-62
2022/03/31 00:32:08;;;;;;;8.65;1.38;;;;;;;;;;5044319;28;20037;-62
2022/03/31 00:34:35;;;;;;;5.90;1.90;;;;;;;;;;5033853;28;20514;-62
2022/03/31 00:37:02;;;;;;;5.30;1.17;;;;;;;;;;5051820;28;20059;-62
2022/03/31 00:39:29;;;;;;;5.45;1.60;;;;;;;;;;5032635;28;20116;-61
2022/03/31 00:41:55;;;;;;;4.90;1.58;;;;;;;;;;5063697;28;20119;-62
2022/03/31 00:44:22;;;;;;;7.78;2.22;;;;;;;;;;5051736;28;20064;-62
2022/03/31 00:46:50;;;;;;;4.22;1.15;;;;;;;;;;5050979;28;20396;-62
2022/03/31 00:49:17;;;;;;;5.50;1.42;;;;;;;;;;5056939;28;20368;-62
2022/03/31 00:51:43;;;;;;;7.55;1.85;;;;;;;;;;5065252;28;20064;-62
2022/03/31 00:54:09;;;;;;;5.90;1.15;;;;;;;;;;5032478;28;20048;-62
2022/03/31 00:56:36;;;;;;;5.07;1.40;;;;;;;;;;5051359;28;20045;-62
2022/03/31 00:59:06;;;;;;;6.53;1.42;;;;;;;;;;5050984;28;20041;-62
2022/03/31 01:01:33;;;;;;;4.53;1.40;;;;;;;;;;5067584;28;20493;-62
2022/03/31 01:04:01;;;;;;;6.68;2.13;;;;;;;;;;5033085;28;20178;-62
2022/03/31 01:06:27;;;;;;;4.88;1.30;;;;;;;;;;5050440;28;20150;-63
2022/03/31 01:08:53;;;;;;;5.85;1.35;;;;;;;;;;5050924;28;20044;-62
2022/03/31 01:11:21;;;;;;;6.47;1.10;;;;;;;;;;5050578;28;20080;-63
2022/03/31 01:13:48;;;;;;;5.20;1.20;;;;;;;;;;5050910;28;20063;-62
2022/03/31 01:16:15;;;;;;;9.23;1.40;;;;;;;;;;5051458;28;20123;-62
2022/03/31 01:18:41;;;;;;;7.28;1.33;;;;;;;;;;5050772;28;20045;-62
2022/03/31 01:21:09;;;;;;;6.60;1.00;;;;;;;;;;5032280;28;20463;-62
2022/03/31 01:23:36;;;;;;;7.25;1.35;;;;;;;;;;5051371;28;20108;-62
2022/03/31 01:26:04;;;;;;;5.75;0.90;;;;;;;;;;5033373;28;20062;-62
2022/03/31 01:28:30;;;;;;;4.22;1.40;;;;;;;;;;5050625;28;20037;-62
2022/03/31 01:30:56;;;;;;;5.20;1.17;;;;;;;;;;5032849;28;20059;-62
2022/03/31 01:33:22;;;;;;;9.07;1.40;;;;;;;;;;5030723;28;20056;-62
2022/03/31 01:35:49;;;;;;;4.65;1.08;;;;;;;;;;5045346;28;20048;-62
2022/03/31 01:38:15;;;;;;;4.03;0.80;;;;;;;;;;5047369;28;20047;-61
2022/03/31 01:40:42;;;;;;;8.00;1.63;;;;;;;;;;5048705;28;20041;-62
2022/03/31 01:43:09;;;;;;;4.30;1.00;;;;;;;;;;5050233;28;20112;-62
2022/03/31 01:45:35;;;;;;;5.97;1.40;;;;;;;;;;5058155;28;20053;-62
2022/03/31 01:48:01;;;;;;;5.13;1.00;;;;;;;;;;5032959;28;20055;-62
2022/03/31 01:50:27;;;;;;;9.82;1.77;;;;;;;;;;5031849;28;20452;-62
2022/03/31 01:52:53;;;;;;;6.38;1.48;;;;;;;;;;5050058;28;20049;-62
2022/03/31 01:55:20;;;;;;;5.10;0.95;;;;;;;;;;5056366;28;20097;-62
2022/03/31 01:57:46;;;;;;;4.68;0.90;;;;;;;;;;5062799;28;20094;-62
2022/03/31 02:00:13;;;;;;;6.72;1.38;;;;;;;;;;5031734;28;20086;-61
2022/03/31 02:02:40;;;;;;;5.70;1.05;;;;;;;;;;5048740;28;20044;-62
2022/03/31 02:05:07;;;;;;;8.02;1.20;;;;;;;;;;5031178;28;20107;-62
2022/03/31 02:07:34;;;;;;;6.30;1.63;;;;;;;;;;5050329;28;20056;-62
2022/03/31 02:10:00;;;;;;;4.82;1.42;;;;;;;;;;5058542;28;20572;-62
2022/03/31 02:12:26;;;;;;;5.95;1.60;;;;;;;;;;5037548;28;20045;-62
2022/03/31 02:14:53;;;;;;;5.68;1.70;;;;;;;;;;5032039;28;20076;-62
2022/03/31 02:17:19;;;;;;;7.90;2.00;;;;;;;;;;5049658;28;20037;-62
2022/03/31 02:19:45;;;;;;;5.38;1.77;;;;;;;;;;5032065;28;20488;-62
2022/03/31 02:22:11;;;;;;;5.75;1.83;;;;;;;;;;5065805;28;20087;-62
2022/03/31 02:24:38;;;;;;;6.93;2.05;;;;;;;;;;5049043;28;20044;-62
2022/03/31 02:27:04;;;;;;;11.18;2.20;;;;;;;;;;5032109;28;20495;-62
2022/03/31 02:29:30;;;;;;;7.45;1.98;;;;;;;;;;5035618;28;20052;-62
2022/03/31 02:31:57;;;;;;;9.50;3.00;;;;;;;;;;5031549;28;20165;-62
2022/03/31 02:34:23;;;;;;;10.23;3.22;;;;;;;;;;5050361;28;20106;-62
2022/03/31 02:36:49;;;;;;;8.30;3.63;;;;;;;;;;5050884;28;20044;-62
2022/03/31 02:39:15;;;;;;;8.43;3.60;;;;;;;;;;5052959;28;20144;-62
2022/03/31 02:41:42;;;;;;;10.10;3.25;;;;;;;;;;5048481;28;20052;-61
2022/03/31 02:44:08;;;;;;;8.15;2.47;;;;;;;;;;5053922;28;20045;-62
2022/03/31 02:46:35;;;;;;;7.68;2.00;;;;;;;;;;5038330;28;20381;-62
2022/03/31 02:49:01;;;;;;;6.70;1.90;;;;;;;;;;5055247;28;20383;-62
2022/03/31 02:51:28;;;;;;;5.40;1.80;;;;;;;;;;5054119;28;20074;-62
2022/03/31 02:56:39;;;;;;;3.78;1.50;;;;;;;;;;5053140;28;20146;-62
2022/03/31 02:59:07;;;;;;;7.30;1.70;;;;;;;;;;5052776;28;20063;-62
2022/03/31 03:01:33;;;;;;;7.68;1.73;;;;;;;;;;5053404;28;20053;-62
2022/03/31 03:04:00;;;;;;;4.03;1.58;;;;;;;;;;5053326;28;20029;-62
2022/03/31 03:06:26;;;;;;;8.00;1.90;;;;;;;;;;5050280;28;20092;-62
2022/03/31 03:08:53;;;;;;;5.55;2.10;;;;;;;;;;5053568;28;20060;-62
2022/03/31 03:11:19;;;;;;;4.85;2.20;;;;;;;;;;5068624;28;20060;-62
2022/03/31 03:13:46;;;;;;;6.93;2.88;;;;;;;;;;5053178;28;20045;-62
2022/03/31 03:16:13;;;;;;;5.78;2.50;;;;;;;;;;5053470;28;20041;-62
2022/03/31 03:18:39;;;;;;;8.52;3.35;;;;;;;;;;5034072;28;20388;-62
2022/03/31 03:21:07;;;;;;;8.80;3.10;;;;;;;;;;5056314;28;20051;-62
2022/03/31 03:23:33;;;;;;;7.13;3.72;;;;;;;;;;5035306;28;20033;-62
2022/03/31 03:26:01;;;;;;;9.80;3.83;;;;;;;;;;5035003;28;20149;-62
2022/03/31 03:28:27;;;;;;;7.47;3.25;;;;;;;;;;5067229;28;20045;-62
2022/03/31 03:30:53;;;;;;;8.00;4.28;;;;;;;;;;5035370;28;20441;-62
2022/03/31 03:33:20;;;;;;;8.07;3.58;;;;;;;;;;5052428;28;20148;-62
2022/03/31 03:35:46;;;;;;;9.55;4.38;;;;;;;;;;5032913;28;20372;-62
2022/03/31 03:38:14;;;;;;;5.72;3.55;;;;;;;;;;5066085;28;20052;-62
2022/03/31 03:40:41;;;;;;;6.13;3.40;;;;;;;;;;5066703;28;20064;-62
2022/03/31 03:43:07;;;;;;;8.15;3.42;;;;;;;;;;5045776;28;20048;-62
2022/03/31 03:45:34;;;;;;;7.60;3.38;;;;;;;;;;5058607;28;20484;-62
2022/03/31 03:48:01;;;;;;;7.28;3.10;;;;;;;;;;5045175;28;20037;-62
2022/03/31 03:50:27;;;;;;;8.50;2.70;;;;;;;;;;5050959;28;20108;-62
2022/03/31 03:52:53;;;;;;;6.57;2.50;;;;;;;;;;5050534;28;20051;-62
2022/03/31 03:55:19;;;;;;;7.18;2.78;;;;;;;;;;5032855;28;20416;-62
2022/03/31 03:57:45;;;;;;;7.05;3.28;;;;;;;;;;5051780;28;20141;-61
2022/03/31 04:00:12;;;;;;;5.47;2.50;;;;;;;;;;5033202;28;20495;-62
2022/03/31 04:02:39;;;;;;;6.28;3.03;;;;;;;;;;5030790;28;20517;-62
2022/03/31 04:05:05;;;;;;;4.53;3.00;;;;;;;;;;5051141;28;20100;-62
2022/03/31 04:07:32;;;;;;;8.73;3.05;;;;;;;;;;5033213;28;20073;-62
2022/03/31 04:09:58;;;;;;;8.55;3.15;;;;;;;;;;5050263;28;20056;-62
2022/03/31 04:12:24;;;;;;;5.68;3.28;;;;;;;;;;5034629;28;20120;-62
2022/03/31 04:14:50;;;;;;;7.75;3.60;;;;;;;;;;5051629;28;20105;-62
2022/03/31 04:17:16;;;;;;;7.07;3.20;;;;;;;;;;5049752;28;20072;-62
2022/03/31 04:19:43;;;;;;;10.15;3.67;;;;;;;;;;5033346;28;20041;-62
2022/03/31 04:22:09;;;;;;;8.18;3.72;;;;;;;;;;5051591;28;20040;-61
2022/03/31 04:24:36;;;;;;;6.10;3.83;;;;;;;;;;5049617;28;20622;-62
2022/03/31 04:27:02;;;;;;;8.18;3.45;;;;;;;;;;5032370;28;20041;-62
2022/03/31 04:29:28;;;;;;;6.80;4.10;;;;;;;;;;5049660;28;20186;-61
2022/03/31 04:31:54;;;;;;;8.05;3.97;;;;;;;;;;5033770;28;20052;-61
2022/03/31 04:34:21;;;;;;;9.43;4.07;;;;;;;;;;5013302;28;1112462;-61
2022/03/31 04:36:47;;;;;;;8.35;4.72;;;;;;;;;;5051810;28;20090;-62
2022/03/31 04:39:14;;;;;;;6.88;3.80;;;;;;;;;;5064937;28;20126;-61
2022/03/31 04:41:41;;;;;;;5.85;3.10;;;;;;;;;;5051121;28;20056;-61
2022/03/31 04:44:07;;;;;;;4.63;3.13;;;;;;;;;;5050647;28;20404;-62
2022/03/31 04:46:34;;;;;;;6.13;2.95;;;;;;;;;;5051466;28;20131;-61
2022/03/31 04:49:00;;;;;;;6.25;3.90;;;;;;;;;;5032334;28;20041;-62
2022/03/31 04:51:27;;;;;;;5.15;3.03;;;;;;;;;;5047052;28;20087;-62
2022/03/31 04:53:53;;;;;;;6.03;3.08;;;;;;;;;;5050436;28;20059;-61
2022/03/31 04:56:19;;;;;;;4.90;3.08;;;;;;;;;;5048328;28;20045;-61
2022/03/31 04:58:45;;;;;;;6.07;3.47;;;;;;;;;;5045041;28;20484;-62
2022/03/31 05:01:12;;;;;;;4.68;3.13;;;;;;;;;;5046206;28;20057;-62
2022/03/31 05:03:39;;;;;;;5.72;3.03;;;;;;;;;;5046751;28;20391;-62
2022/03/31 05:06:06;;;;;;;5.90;3.22;;;;;;;;;;5048845;28;20118;-62
2022/03/31 05:08:33;;;;;;;6.35;3.25;;;;;;;;;;5064728;28;20449;-62
2022/03/31 05:10:59;;;;;;;4.93;3.15;;;;;;;;;;5062025;28;20373;-62
2022/03/31 05:13:25;;;;;;;9.60;3.40;;;;;;;;;;5048748;28;20377;-62
2022/03/31 05:15:51;;;;;;;6.32;2.88;;;;;;;;;;5065133;28;20488;-63
2022/03/31 05:18:18;;;;;;;5.78;3.47;;;;;;;;;;5030367;28;20412;-62
2022/03/31 05:20:44;;;;;;;9.50;3.20;;;;;;;;;;5048325;28;20041;-63
2022/03/31 05:23:11;;;;;;;9.23;4.13;;;;;;;;;;5048875;28;20047;-62
2022/03/31 05:25:37;;;;;;;5.80;2.70;;;;;;;;;;5032487;28;20040;-63
2022/03/31 05:28:03;;;;;;;7.22;2.67;;;;;;;;;;5064081;28;20097;-62
2022/03/31 05:30:30;;;;;;;5.38;2.25;;;;;;;;;;5064753;28;20099;-62
2022/03/31 05:32:56;;;;;;;9.52;3.05;;;;;;;;;;5048834;28;20120;-62
2022/03/31 05:35:23;;;;;;;11.10;3.00;;;;;;;;;;5064446;28;20045;-62
2022/03/31 05:37:49;;;;;;;7.70;3.03;;;;;;;;;;5046491;28;20144;-62
2022/03/31 05:40:16;;;;;;;6.13;2.80;;;;;;;;;;5044452;28;20041;-62
2022/03/31 05:42:42;;;;;;;5.53;2.78;;;;;;;;;;5046625;28;20399;-62
2022/03/31 05:45:10;;;;;;;10.05;4.18;;;;;;;;;;5048107;28;20053;-62
2022/03/31 05:47:37;;;;;;;5.57;3.10;;;;;;;;;;5047158;28;20052;-62
2022/03/31 05:50:06;;;;;;;7.03;3.53;;;;;;;;;;5048680;28;20615;-62
2022/03/31 05:52:32;;;;;;;12.60;3.78;;;;;;;;;;5048378;28;20465;-62
2022/03/31 05:55:00;;;;;;;8.13;3.70;;;;;;;;;;5030319;28;20057;-62
2022/03/31 05:57:26;;;;;;;11.05;3.63;;;;;;;;;;5047788;28;20110;-62
2022/03/31 05:59:52;;;;;;;9.88;4.00;;;;;;;;;;5048086;28;20056;-62
2022/03/31 06:02:18;;;;;;;10.43;3.50;;;;;;;;;;5014020;28;20049;-62
2022/03/31 06:04:45;;;;;;;8.63;3.45;;;;;;;;;;5030948;28;20045;-62
2022/03/31 06:07:11;;;;;;;11.32;3.55;;;;;;;;;;5027851;28;20047;-62
2022/03/31 06:09:37;;;;;;;6.30;2.92;;;;;;;;;;5027883;28;20041;-62
2022/03/31 06:12:03;;;;;;;10.10;4.00;;;;;;;;;;5028776;28;20041;-62
2022/03/31 06:14:29;;;;;;;8.90;3.75;;;;;;;;;;5030242;28;20424;-62
2022/03/31 06:16:56;;;;;;;7.30;3.42;;;;;;;;;;5042023;28;20633;-62
2022/03/31 06:19:22;;;;;;;9.68;3.63;;;;;;;;;;5046726;28;20040;-62
2022/03/31 06:21:48;;;;;;;6.00;3.47;;;;;;;;;;5029749;28;20045;-62
2022/03/31 06:24:14;;;;;;;7.38;3.85;;;;;;;;;;5046030;28;20063;-62
2022/03/31 06:26:40;;;;;;;9.73;4.30;;;;;;;;;;5048647;28;20045;-62
2022/03/31 06:29:07;;;;;;;5.65;3.38;;;;;;;;;;5048719;28;20121;-62
2022/03/31 06:31:33;;;;;;;4.75;3.33;;;;;;;;;;5060183;28;20040;-62
2022/03/31 06:33:59;;;;;;;7.32;4.05;;;;;;;;;;5030088;28;20115;-62
2022/03/31 06:36:26;;;;;;;4.90;3.55;;;;;;;;;;5048727;28;20053;-62
2022/03/31 06:38:52;;;;;;;4.95;3.40;;;;;;;;;;5062295;28;20052;-62
2022/03/31 06:41:18;;;;;;;5.47;3.45;;;;;;;;;;5048241;28;20040;-62
2022/03/31 06:43:48;;;;;;;4.90;3.33;;;;;;;;;;5047022;28;20072;-62
2022/03/31 06:46:16;;;;;;;5.47;3.70;;;;;;;;;;5043954;28;20078;-63
2022/03/31 06:48:46;;;;;;;5.50;3.60;;;;;;;;;;5048042;28;20102;-63
2022/03/31 06:51:13;;;;;;;5.30;3.40;;;;;;;;;;5076835;28;20090;-62
2022/03/31 06:53:40;;;;;;;7.03;3.50;;;;;;;;;;5048127;28;20045;-62
2022/03/31 06:56:06;;;;;;;5.72;4.05;;;;;;;;;;5048273;28;20049;-62
2022/03/31 06:58:33;;;;;;;5.82;4.30;;;;;;;;;;5059193;28;20429;-61
2022/03/31 07:00:59;;;;;;;4.95;3.47;;;;;;;;;;5030481;28;20041;-63
2022/03/31 07:03:26;;;;;;;6.05;3.80;;;;;;;;;;5030381;28;20037;-62
2022/03/31 07:05:52;;;;;;;5.88;4.10;;;;;;;;;;5047244;28;20041;-63
2022/03/31 07:08:18;;;;;;;5.10;3.75;;;;;;;;;;5062847;28;20087;-63
2022/03/31 07:10:44;;;;;;;4.88;3.50;;;;;;;;;;5061601;28;20132;-63
2022/03/31 07:13:11;;;;;;;5.72;3.88;;;;;;;;;;5027032;28;20064;-62
2022/03/31 07:15:37;;;;;;;5.55;4.15;;;;;;;;;;5030749;28;20045;-63
2022/03/31 07:18:05;;;;;;;6.18;4.15;;;;;;;;;;5060145;28;20429;-63
2022/03/31 07:20:31;;;;;;;6.07;4.78;;;;;;;;;;5028991;28;20097;-62
2022/03/31 07:22:58;;;;;;;5.85;4.22;;;;;;;;;;5047967;28;20421;-62
2022/03/31 07:25:24;;;;;;;5.22;3.80;;;;;;;;;;5033477;28;20074;-63
2022/03/31 07:27:50;;;;;;;5.90;4.22;;;;;;;;;;5050963;28;20033;-63
2022/03/31 07:30:17;;;;;;;7.10;4.00;;;;;;;;;;5033856;28;20488;-63
2022/03/31 07:32:51;;;;;;;5.30;3.90;;;;;;;;;;5051596;28;20491;-63
2022/03/31 07:35:18;;;;;;;5.97;4.10;;;;;;;;;;5033599;28;20093;-63
2022/03/31 07:37:44;;;;;;;6.32;4.43;;;;;;;;;;5047942;28;20310;-63
2022/03/31 07:40:10;;;;;;;5.80;3.90;;;;;;;;;;5046740;28;20084;-63
2022/03/31 07:42:36;;;;;;;6.15;4.28;;;;;;;;;;5051758;28;20048;-63
2022/03/31 07:45:03;;;;;;;6.63;4.70;;;;;;;;;;5050180;28;20040;-63
2022/03/31 07:47:29;;;;;;;7.70;5.65;;;;;;;;;;5050396;28;20396;-63
2022/03/31 07:49:56;;;;;;;7.63;5.32;;;;;;;;;;5051056;28;20037;-63
2022/03/31 07:52:22;;;;;;;8.15;5.97;;;;;;;;;;5051980;28;20166;-63
2022/03/31 07:54:49;;;;;;;8.60;6.20;;;;;;;;;;5051297;28;20052;-62
2022/03/31 07:57:16;;;;;;;7.80;5.80;;;;;;;;;;5029181;28;20049;-63
2022/03/31 07:59:42;;;;;;;8.70;6.55;;;;;;;;;;5064695;28;20041;-63
2022/03/31 08:02:09;;;;;;;9.50;6.60;;;;;;;;;;5049732;28;20103;-63
2022/03/31 08:04:35;;;;;;;8.65;6.45;;;;;;;;;;5060504;28;20127;-63
2022/03/31 08:07:01;;;;;;;9.55;7.20;;;;;;;;;;5049371;28;20033;-63
2022/03/31 08:09:28;;;;;;;8.90;6.68;;;;;;;;;;5031827;28;20050;-63
2022/03/31 08:11:54;;;;;;;10.15;6.25;;;;;;;;;;5030866;28;20057;-63
2022/03/31 08:14:21;;;;;;;7.47;5.63;;;;;;;;;;5047350;28;20048;-62
2022/03/31 08:16:48;;;;;;;6.15;4.63;;;;;;;;;;5047013;28;20322;-63
2022/03/31 08:19:15;;;;;;;6.95;5.10;;;;;;;;;;5050335;28;20376;-62
2022/03/31 08:21:42;;;;;;;7.30;5.18;;;;;;;;;;5050598;28;20036;-62
2022/03/31 08:24:09;;;;;;;7.03;5.10;;;;;;;;;;5047014;28;20087;-63
2022/03/31 08:26:35;;;;;;;7.25;5.38;;;;;;;;;;5049509;28;20045;-63
2022/03/31 08:29:02;;;;;;;6.45;5.15;;;;;;;;;;5032271;28;20067;-63
2022/03/31 08:31:28;;;;;;;6.88;5.20;;;;;;;;;;5050075;28;20048;-63
2022/03/31 08:33:54;;;;;;;6.60;5.13;;;;;;;;;;5049001;28;20154;-63
2022/03/31 08:36:21;;;;;;;7.55;5.68;;;;;;;;;;5030767;28;20053;-63
2022/03/31 08:38:47;;;;;;;8.30;6.03;;;;;;;;;;5030492;28;20037;-63
2022/03/31 08:41:13;;;;;;;8.20;6.38;;;;;;;;;;5049949;28;20047;-63
2022/03/31 08:43:41;;;;;;;8.27;6.03;;;;;;;;;;5064006;28;20061;-63
2022/03/31 08:46:09;;;;;;;9.32;7.05;;;;;;;;;;5065047;28;20044;-63
2022/03/31 08:48:35;;;;;;;10.90;7.72;;;;;;;;;;5063854;28;20133;-63
2022/03/31 08:51:01;;;;;;;8.80;7.25;;;;;;;;;;5049076;28;20483;-62
2022/03/31 08:53:28;;;;;;;9.35;7.20;;;;;;;;;;5031514;28;20144;-63
2022/03/31 08:55:54;;;;;;;9.73;6.85;;;;;;;;;;5029805;28;20052;-63
2022/03/31 08:58:20;;;;;;;10.38;7.97;;;;;;;;;;5048118;28;20060;-62
2022/03/31 09:00:46;;;;;;;8.48;6.90;;;;;;;;;;5032119;28;20055;-62
2022/03/31 09:03:13;;;;;;;8.65;6.78;;;;;;;;;;5064609;28;20044;-63
2022/03/31 09:05:41;;;;;;;8.32;5.75;;;;;;;;;;5049361;28;20037;-64
2022/03/31 09:08:10;;;;;;;6.70;4.95;;;;;;;;;;5031725;28;20063;-63
2022/03/31 09:10:37;;;;;;;6.07;4.82;;;;;;;;;;5049409;28;20110;-63
2022/03/31 09:13:05;;;;;;;7.25;4.40;;;;;;;;;;5047688;28;20099;-63
2022/03/31 09:15:33;;;;;;;8.30;5.68;;;;;;;;;;5032180;28;20047;-63
2022/03/31 09:17:59;;;;;;;7.93;5.40;;;;;;;;;;5031803;28;20051;-63
2022/03/31 09:20:37;;;;;;;7.28;5.40;;;;;;;;;;5049182;28;20080;-63
2022/03/31 09:23:03;;;;;;;7.97;5.53;;;;;;;;;;5031020;28;20049;-63
2022/03/31 09:25:32;;;;;;;9.52;6.43;;;;;;;;;;5048909;28;20112;-63
2022/03/31 09:28:01;;;;;;;8.38;6.32;;;;;;;;;;5049615;28;20124;-63
2022/03/31 09:30:27;;;;;;;11.05;6.53;;;;;;;;;;5063911;28;20045;-63
2022/03/31 09:32:54;;;;;;;8.80;6.45;;;;;;;;;;5027149;28;20058;-63
2022/03/31 09:35:23;;;;;;;8.10;5.93;;;;;;;;;;5023308;28;20088;-63
2022/03/31 09:37:51;;;;;;;9.93;6.28;;;;;;;;;;5027384;28;20046;-63
2022/03/31 09:40:19;;;;;;;8.20;5.50;;;;;;;;;;5026920;28;20124;-63
2022/03/31 09:42:55;;;;;;;9.07;5.15;;;;;;;;;;5026648;28;20457;-63
2022/03/31 09:45:21;;;;;;;9.00;5.15;;;;;;;;;;5026031;28;20511;-63
2022/03/31 09:47:51;;;;;;;7.88;5.65;;;;;;;;;;5027321;28;20069;-64
2022/03/31 09:50:18;;;;;;;9.13;6.63;;;;;;;;;;5059262;28;20052;-63
2022/03/31 09:52:44;;;;;;;7.85;5.25;;;;;;;;;;5025807;28;20459;-63
2022/03/31 09:55:12;;;;;;;7.50;5.75;;;;;;;;;;5025172;28;20053;-63
2022/03/31 09:57:39;;;;;;;7.72;5.57;;;;;;;;;;5057360;28;20045;-64
2022/03/31 10:00:07;;;;;;;8.05;5.82;;;;;;;;;;5062968;28;20053;-63
2022/03/31 10:02:35;;;;;;;9.43;6.22;;;;;;;;;;5030686;28;20037;-63
2022/03/31 10:05:04;;;;;;;7.00;5.35;;;;;;;;;;5031254;28;20449;-63
2022/03/31 10:07:30;;;;;;;7.53;5.35;;;;;;;;;;5063073;28;20041;-63
2022/03/31 10:09:57;;;;;;;10.60;5.70;;;;;;;;;;5025128;28;20060;-64
2022/03/31 10:12:28;;;;;;;6.85;4.88;;;;;;;;;;5027948;28;20034;-63
2022/03/31 10:14:59;;;;;;;6.47;4.85;;;;;;;;;;5025718;28;20094;-64
2022/03/31 10:17:27;;;;;;;7.65;5.18;;;;;;;;;;5028577;28;20052;-63
2022/03/31 10:19:54;;;;;;;8.82;5.85;;;;;;;;;;5028941;28;20057;-63
2022/03/31 10:25:12;;;;;;;7.30;5.55;;;;;;;;;;5027137;28;20053;-64
2022/03/31 10:27:40;;;;;;;8.70;5.70;;;;;;;;;;5027798;28;20044;-62
2022/03/31 10:30:08;;;;;;;7.72;4.82;;;;;;;;;;5026967;28;20057;-63
2022/03/31 10:32:34;;;;;;;6.80;4.90;;;;;;;;;;5029396;28;20045;-64
2022/03/31 10:35:01;;;;;;;7.00;5.18;;;;;;;;;;5048862;28;20052;-64
2022/03/31 10:37:35;;;;;;;7.70;5.28;;;;;;;;;;5047570;28;20135;-64
2022/03/31 10:40:04;;;;;;;9.48;5.75;;;;;;;;;;5046671;28;20036;-64
2022/03/31 10:42:30;;;;;;;8.57;5.78;;;;;;;;;;5030047;28;20037;-64
2022/03/31 10:45:04;;;;;;;6.95;4.82;;;;;;;;;;5047864;28;20044;-64
2022/03/31 10:47:32;;;;;;;6.90;5.35;;;;;;;;;;5028867;28;20120;-64
2022/03/31 10:49:58;;;;;;;6.60;4.65;;;;;;;;;;5029830;28;20049;-64
2022/03/31 10:52:25;;;;;;;6.32;4.50;;;;;;;;;;5043197;28;20074;-64
2022/03/31 10:54:51;;;;;;;7.65;5.15;;;;;;;;;;5043983;28;20489;-64
2022/03/31 10:57:19;;;;;;;6.00;3.67;;;;;;;;;;5049936;28;20072;-64
2022/03/31 10:59:46;;;;;;;9.93;4.43;;;;;;;;;;5054836;28;20044;-64
2022/03/31 11:02:15;;;;;;;5.60;3.67;;;;;;;;;;5054739;28;20045;-64
2022/03/31 11:04:52;;;;;;;5.80;3.72;;;;;;;;;;5050398;28;20043;-64
2022/03/31 11:07:20;;;;;;;7.28;3.95;;;;;;;;;;5036378;28;20103;-64
2022/03/31 11:09:47;;;;;;;6.60;4.75;;;;;;;;;;5065777;28;20053;-64
2022/03/31 11:12:22;;;;;;;6.05;3.90;;;;;;;;;;5053721;28;20124;-64
2022/03/31 11:15:00;;;;;;;5.53;3.95;;;;;;;;;;5069123;28;20136;-63
2022/03/31 11:17:27;;;;;;;6.18;4.20;;;;;;;;;;5054187;28;20102;-64
2022/03/31 11:19:55;;;;;;;5.80;3.72;;;;;;;;;;5069659;28;20049;-64
2022/03/31 11:22:22;;;;;;;6.68;4.28;;;;;;;;;;5055215;28;20045;-64
2022/03/31 11:24:50;;;;;;;5.80;4.10;;;;;;;;;;5037209;28;20500;-64
2022/03/31 11:27:17;;;;;;;6.28;4.18;;;;;;;;;;5069807;28;20086;-64
2022/03/31 11:29:44;;;;;;;6.28;4.18;;;;;;;;;;5055148;28;20045;-64
2022/03/31 11:32:10;;;;;;;7.25;3.85;;;;;;;;;;5053931;28;20037;-64
2022/03/31 11:34:36;;;;;;;6.82;3.60;;;;;;;;;;5070259;28;20053;-64
2022/03/31 11:37:02;;;;;;;7.35;4.55;;;;;;;;;;5053495;28;20478;-64
2022/03/31 11:39:30;;;;;;;6.32;4.35;;;;;;;;;;5022835;28;20504;-64
2022/03/31 11:41:57;;;;;;;6.80;4.38;;;;;;;;;;5053764;28;20407;-64
2022/03/31 11:44:26;;;;;;;8.05;4.47;;;;;;;;;;5053811;28;20138;-64
2022/03/31 11:46:52;;;;;;;6.00;4.00;;;;;;;;;;5053800;28;20412;-64
2022/03/31 11:49:20;;;;;;;6.57;3.97;;;;;;;;;;5054457;28;20080;-64
2022/03/31 11:51:50;;;;;;;6.47;4.28;;;;;;;;;;5064666;28;20056;-64
2022/03/31 11:54:16;;;;;;;6.05;4.10;;;;;;;;;;5061802;28;20337;-64
2022/03/31 11:56:42;;;;;;;6.80;4.20;;;;;;;;;;5063754;28;20094;-64
2022/03/31 11:59:09;;;;;;;6.78;4.35;;;;;;;;;;5032678;28;20052;-64
2022/03/31 12:01:37;;;;;;;7.35;4.40;;;;;;;;;;5049225;28;20063;-64
2022/03/31 12:04:04;;;;;;;6.93;4.75;;;;;;;;;;5051293;28;20039;-64
2022/03/31 12:06:32;;;;;;;7.78;4.75;;;;;;;;;;5051081;28;20382;-64
2022/03/31 12:08:59;;;;;;;6.22;4.35;;;;;;;;;;5044875;28;20049;-64
2022/03/31 12:11:25;;;;;;;7.22;4.53;;;;;;;;;;5038824;28;20045;-64
2022/03/31 12:13:52;;;;;;;6.82;4.93;;;;;;;;;;5065870;28;20538;-64
2022/03/31 12:16:20;;;;;;;7.90;4.45;;;;;;;;;;5028548;28;20503;-64
2022/03/31 12:18:53;;;;;;;8.52;4.72;;;;;;;;;;5039810;28;20045;-64
2022/03/31 12:21:20;;;;;;;7.57;4.72;;;;;;;;;;5033801;28;20045;-66
2022/03/31 12:23:47;;;;;;;9.73;4.28;;;;;;;;;;5063213;28;20045;-64
2022/03/31 12:26:18;;;;;;;10.77;4.60;;;;;;;;;;5049064;28;20054;-64
2022/03/31 12:28:44;;;;;;;6.72;4.75;;;;;;;;;;5048428;28;20041;-64
2022/03/31 12:31:28;;;;;;;7.40;4.03;;;;;;;;;;5050073;28;20052;-64
2022/03/31 12:33:56;;;;;;;7.78;4.47;;;;;;;;;;5049053;28;20057;-64
2022/03/31 12:36:24;;;;;;;6.45;4.25;;;;;;;;;;5064321;28;20427;-64
2022/03/31 12:38:52;;;;;;;5.57;3.10;;;;;;;;;;5049949;28;20041;-64
2022/03/31 12:41:19;;;;;;;8.20;4.55;;;;;;;;;;5049410;28;20041;-64
2022/03/31 12:43:56;;;;;;;7.15;4.28;;;;;;;;;;5048392;28;20044;-64
2022/03/31 12:46:22;;;;;;;5.90;3.30;;;;;;;;;;5032113;28;20135;-64
2022/03/31 12:48:53;;;;;;;7.25;3.70;;;;;;;;;;5049682;28;20447;-64
2022/03/31 12:51:19;;;;;;;7.25;4.00;;;;;;;;;;5048174;28;20048;-63
2022/03/31 12:53:46;;;;;;;8.30;3.88;;;;;;;;;;5050489;28;20052;-64
2022/03/31 12:56:20;;;;;;;5.32;3.17;;;;;;;;;;5050124;28;20197;-64
2022/03/31 12:58:47;;;;;;;5.20;3.05;;;;;;;;;;5052745;28;20040;-64
2022/03/31 13:01:13;;;;;;;7.88;3.70;;;;;;;;;;5052014;28;20500;-64
2022/03/31 13:03:39;;;;;;;6.93;3.28;;;;;;;;;;5050791;28;20117;-64
2022/03/31 13:06:05;;;;;;;4.82;3.05;;;;;;;;;;5065590;28;20048;-64
2022/03/31 13:08:31;;;;;;;6.30;3.33;;;;;;;;;;5049836;28;20059;-64
2022/03/31 13:10:58;;;;;;;5.93;3.72;;;;;;;;;;5064787;28;20388;-64
2022/03/31 13:13:25;;;;;;;7.97;4.40;;;;;;;;;;5050733;28;20045;-64
2022/03/31 13:15:51;;;;;;;6.13;3.88;;;;;;;;;;5052287;28;20055;-64
2022/03/31 13:18:17;;;;;;;6.35;3.63;;;;;;;;;;5051398;28;20036;-62
2022/03/31 13:20:43;;;;;;;7.35;3.88;;;;;;;;;;5033239;28;20041;-61
2022/03/31 13:23:09;;;;;;;6.90;3.85;;;;;;;;;;5066819;28;20041;-61
2022/03/31 13:25:36;;;;;;;5.93;3.83;;;;;;;;;;5030738;28;20057;-61
2022/03/31 13:28:02;;;;;;;6.00;3.90;;;;;;;;;;5044778;28;20055;-61
2022/03/31 13:30:28;;;;;;;6.05;3.83;;;;;;;;;;5030743;28;20055;-62
2022/03/31 13:32:55;;;;;;;7.75;4.28;;;;;;;;;;5029481;28;20075;-61
2022/03/31 13:35:21;;;;;;;6.93;4.00;;;;;;;;;;5062555;28;20068;-61
2022/03/31 13:37:49;;;;;;;5.63;3.90;;;;;;;;;;5059154;28;20448;-61
2022/03/31 13:40:17;;;;;;;6.25;3.70;;;;;;;;;;5047252;28;20460;-62
2022/03/31 13:42:44;;;;;;;6.65;4.15;;;;;;;;;;5047938;28;20044;-62
2022/03/31 13:45:11;;;;;;;8.48;4.72;;;;;;;;;;5047379;28;20056;-62
2022/03/31 13:47:38;;;;;;;8.23;4.82;;;;;;;;;;5046792;28;20045;-62
2022/03/31 13:50:04;;;;;;;7.15;4.40;;;;;;;;;;5064224;28;20044;-62
2022/03/31 13:52:30;;;;;;;9.73;6.18;;;;;;;;;;5062493;28;20559;-61
2022/03/31 13:54:57;;;;;;;11.00;6.78;;;;;;;;;;5026132;28;20408;-62
2022/03/31 14:02:55;;;;;;;9.48;6.45;;;;;;;;;;5048202;28;20041;-62
2022/03/31 14:05:22;;;;;;;9.57;7.18;;;;;;;;;;5062953;28;20048;-61
2022/03/31 14:07:49;;;;;;;11.25;7.53;;;;;;;;;;5050647;28;20047;-61
2022/03/31 14:10:16;;;;;;;11.15;7.65;;;;;;;;;;5046675;28;20118;-61
2022/03/31 14:12:42;;;;;;;11.35;7.78;;;;;;;;;;5047805;28;20190;-62
2022/03/31 14:15:09;;;;;;;11.13;7.10;;;;;;;;;;5030116;28;20426;-62
2022/03/31 14:17:36;;;;;;;12.35;7.78;;;;;;;;;;5048843;28;20044;-62
2022/03/31 14:20:03;;;;;;;11.57;7.70;;;;;;;;;;5060289;28;20076;-62
2022/03/31 14:22:29;;;;;;;13.55;9.05;;;;;;;;;;5030434;28;20048;-62
2022/03/31 14:24:55;;;;;;;13.70;9.20;;;;;;;;;;5048629;28;20094;-62
2022/03/31 14:27:22;;;;;;;14.05;9.82;;;;;;;;;;5048208;28;20037;-61
2022/03/31 14:29:48;;;;;;;14.75;9.55;;;;;;;;;;5043146;28;20041;-62
2022/03/31 14:32:15;;;;;;;14.88;10.73;;;;;;;;;;5030325;28;20115;-61
2022/03/31 14:34:41;;;;;;;13.30;9.13;;;;;;;;;;5052072;28;20056;-64
2022/03/31 14:37:08;;;;;;;14.35;8.25;;;;;;;;;;5051208;28;20037;-64
2022/03/31 14:39:35;;;;;;;11.55;7.60;;;;;;;;;;5048703;28;20189;-64
2022/03/31 14:42:03;;;;;;;13.75;7.40;;;;;;;;;;5064859;28;20140;-64
2022/03/31 14:44:30;;;;;;;10.85;7.95;;;;;;;;;;5052939;28;20037;-65
2022/03/31 14:46:57;;;;;;;11.70;7.93;;;;;;;;;;5067629;28;20041;-65
2022/03/31 14:49:23;;;;;;;9.93;7.00;;;;;;;;;;5051763;28;20033;-65
2022/03/31 14:51:50;;;;;;;10.27;7.00;;;;;;;;;;5066142;28;20124;-64
2022/03/31 14:54:16;;;;;;;11.85;8.23;;;;;;;;;;5027683;28;21280;-61